Time;durP1;ratioP1;P1;durP2;ratioP2;P2;SDS_P1;SDS_P2;PMS_P1;PMS_P2;Temp;Humidity;BMP_temperature;BMP_pressure;BME280_temperature;BME280_humidity;BME280_pressure;Samples;Min_cycle;Max_cycle;Signal;HPM_P1;HPM_P2
2023/08/08 00:01:49;;;;;;;1.30;0.70;;;;;;;26.26;33.04;96426.16;5026049;28;20041;-29
2023/08/08 00:04:14;;;;;;;2.63;0.70;;;;;;;26.45;32.90;96424.09;5027077;28;20108;-28
2023/08/08 00:06:40;;;;;;;1.05;0.60;;;;;;;26.39;32.84;96436.56;5015582;28;20018;-28
2023/08/08 00:09:06;;;;;;;1.13;0.73;;;;;;;26.44;32.92;96439.28;5019522;28;20025;-28
2023/08/08 00:11:32;;;;;;;1.35;0.60;;;;;;;26.37;32.88;96439.13;5019436;28;20488;-29
2023/08/08 00:13:57;;;;;;;2.80;0.70;;;;;;;26.34;32.87;96438.16;5019071;28;20026;-29
2023/08/08 00:16:23;;;;;;;1.40;0.70;;;;;;;26.20;32.59;96441.44;5020372;28;20428;-28
2023/08/08 00:18:55;;;;;;;4.18;0.82;;;;;;;26.36;32.49;96440.41;5013831;28;20520;-28
2023/08/08 00:21:21;;;;;;;4.30;1.25;;;;;;;26.29;32.57;96449.41;5018763;28;20484;-28
2023/08/08 00:23:46;;;;;;;2.08;0.63;;;;;;;26.30;32.16;96439.78;5020398;28;20116;-29
2023/08/08 00:26:12;;;;;;;1.30;0.70;;;;;;;26.45;31.94;96435.22;5020100;28;20421;-28
2023/08/08 00:28:37;;;;;;;1.08;0.60;;;;;;;26.41;31.90;96429.22;5018311;28;20028;-28
2023/08/08 00:31:03;;;;;;;1.00;0.70;;;;;;;26.49;31.65;96434.88;5022684;28;20026;-28
2023/08/08 00:33:29;;;;;;;1.10;0.63;;;;;;;26.28;31.86;96436.78;5023469;28;20151;-28
2023/08/08 00:35:54;;;;;;;1.95;0.70;;;;;;;26.43;31.29;96443.34;5022613;28;20041;-29
2023/08/08 00:38:20;;;;;;;1.10;0.60;;;;;;;26.41;31.15;96442.38;5015720;28;20049;-28
2023/08/08 00:40:45;;;;;;;3.45;0.75;;;;;;;26.49;31.11;96440.44;5030500;28;20018;-28
2023/08/08 00:43:11;;;;;;;1.95;0.55;;;;;;;26.37;31.40;96439.13;5015155;28;20040;-28
2023/08/08 00:45:37;;;;;;;1.25;0.73;;;;;;;26.23;30.96;96440.34;5023379;28;20100;-28
2023/08/08 00:48:04;;;;;;;1.65;0.63;;;;;;;26.25;31.07;96440.56;5023052;28;20022;-28
2023/08/08 00:50:29;;;;;;;2.45;0.75;;;;;;;26.28;30.88;96431.97;5023377;28;20029;-29
2023/08/08 00:52:55;;;;;;;2.60;0.70;;;;;;;26.33;30.74;96433.16;5023818;28;20473;-28
2023/08/08 00:55:21;;;;;;;1.70;1.00;;;;;;;26.26;31.21;96439.28;5023875;28;20029;-29
2023/08/08 00:57:47;;;;;;;2.35;0.60;;;;;;;26.30;31.12;96439.78;5020333;28;20033;-28
2023/08/08 01:00:12;;;;;;;1.08;0.60;;;;;;;26.11;31.27;96442.56;5026793;28;20389;-29
2023/08/08 01:02:38;;;;;;;2.13;0.80;;;;;;;26.34;30.47;96434.63;5023702;28;20661;-28
2023/08/08 01:05:05;;;;;;;3.80;0.50;;;;;;;26.41;30.12;96442.38;5021056;28;20385;-31
2023/08/08 01:07:41;;;;;;;0.73;0.60;;;;;;;26.33;30.27;96438.72;5018327;28;20026;-29
2023/08/08 01:10:11;;;;;;;0.90;0.52;;;;;;;26.35;30.71;96436.88;5028355;28;20381;-29
2023/08/08 01:12:41;;;;;;;2.97;0.60;;;;;;;26.30;30.00;96434.22;5023888;28;20029;-28
2023/08/08 01:15:08;;;;;;;1.35;0.70;;;;;;;26.32;30.39;96434.44;5026435;28;20520;-29
2023/08/08 01:17:36;;;;;;;0.68;0.57;;;;;;;26.32;30.51;96432.41;5018731;28;20026;-28
2023/08/08 01:20:06;;;;;;;3.65;0.70;;;;;;;26.27;30.64;96436.00;5030485;28;20543;-30
2023/08/08 01:22:50;;;;;;;1.30;0.68;;;;;;;26.09;30.56;96439.56;5023961;28;20033;-28
2023/08/08 01:25:16;;;;;;;1.42;0.60;;;;;;;26.28;29.73;96434.00;5019987;28;20028;-29
2023/08/08 01:27:43;;;;;;;1.02;0.60;;;;;;;26.07;30.13;96431.03;5019869;28;20034;-29
2023/08/08 01:30:09;;;;;;;1.60;0.70;;;;;;;26.16;30.16;96430.63;5024612;28;20377;-29
2023/08/08 01:32:34;;;;;;;1.15;0.52;;;;;;;26.18;29.91;96430.09;5020985;28;20014;-29
2023/08/08 01:34:59;;;;;;;1.05;0.60;;;;;;;26.15;30.33;96440.25;5023139;28;20024;-29
2023/08/08 01:37:46;;;;;;;1.83;0.50;;;;;;;25.94;30.27;96445.63;5022933;28;20034;-28
2023/08/08 01:40:16;;;;;;;0.95;0.50;;;;;;;26.21;30.44;96449.22;5024356;28;20088;-28
2023/08/08 01:42:45;;;;;;;2.38;0.63;;;;;;;25.91;30.08;96443.91;5021920;28;20469;-28
2023/08/08 01:45:11;;;;;;;0.80;0.57;;;;;;;25.94;29.85;96448.41;5029883;28;20045;-30
2023/08/08 01:47:37;;;;;;;1.08;0.50;;;;;;;25.96;30.06;96445.84;5022496;28;20470;-28
2023/08/08 01:50:02;;;;;;;6.05;0.60;;;;;;;26.06;29.80;96449.72;5022731;28;20053;-29
2023/08/08 01:52:29;;;;;;;1.23;0.80;;;;;;;26.06;29.72;96449.72;5023116;28;20077;-28
2023/08/08 01:54:55;;;;;;;1.25;0.60;;;;;;;26.00;30.12;96453.88;5022539;28;20065;-29
2023/08/08 01:57:20;;;;;;;1.52;0.90;;;;;;;26.07;29.52;96451.22;5022730;28;20025;-28
2023/08/08 01:59:46;;;;;;;1.00;0.57;;;;;;;26.09;29.47;96459.03;5018094;28;20025;-28
2023/08/08 02:02:12;;;;;;;2.28;0.40;;;;;;;26.07;29.38;96456.03;5025868;28;20025;-28
2023/08/08 02:04:37;;;;;;;0.85;0.50;;;;;;;26.04;29.07;96460.63;5017482;28;20029;-29
2023/08/08 02:07:03;;;;;;;0.55;0.40;;;;;;;26.09;29.46;96459.03;5025758;28;20382;-29
2023/08/08 02:09:28;;;;;;;1.33;0.50;;;;;;;26.18;29.03;96455.84;5018198;28;20014;-29
2023/08/08 02:11:54;;;;;;;1.30;0.70;;;;;;;26.12;28.69;96455.94;5022983;28;20028;-28
2023/08/08 02:14:19;;;;;;;0.68;0.45;;;;;;;26.26;28.92;96453.19;5027897;28;20046;-29
2023/08/08 02:16:45;;;;;;;1.95;0.60;;;;;;;26.11;29.44;96448.13;5023279;28;20026;-31
2023/08/08 02:19:10;;;;;;;2.85;0.80;;;;;;;26.26;29.24;96450.41;5025913;28;20025;-29
2023/08/08 02:21:36;;;;;;;3.30;0.50;;;;;;;26.18;29.11;96441.97;5025230;28;20025;-29
2023/08/08 02:24:01;;;;;;;1.15;0.50;;;;;;;26.04;29.39;96440.41;5022458;28;20520;-28
2023/08/08 02:26:26;;;;;;;1.88;0.50;;;;;;;26.17;29.12;96434.16;5020481;28;20017;-30
2023/08/08 02:28:52;;;;;;;0.80;0.50;;;;;;;26.12;29.68;96430.19;5024753;28;20362;-28
2023/08/08 02:31:20;;;;;;;2.35;0.60;;;;;;;25.96;29.73;96437.53;5025396;28;20025;-29
2023/08/08 02:33:52;;;;;;;2.55;0.55;;;;;;;26.07;29.43;96437.34;5025345;28;20062;-29
2023/08/08 02:36:18;;;;;;;1.13;0.70;;;;;;;25.91;29.37;96443.91;5024878;28;20025;-28
2023/08/08 02:38:44;;;;;;;1.25;0.70;;;;;;;26.08;29.37;96435.31;5019224;28;20034;-29
2023/08/08 02:41:10;;;;;;;2.72;0.80;;;;;;;26.01;29.67;96441.47;5022229;28;20127;-29
2023/08/08 02:43:35;;;;;;;1.52;0.77;;;;;;;26.01;29.11;96436.66;5021433;28;20018;-29
2023/08/08 02:46:01;;;;;;;0.88;0.55;;;;;;;26.08;29.36;96441.63;5015215;28;20122;-28
2023/08/08 02:48:27;;;;;;;1.30;0.80;;;;;;;26.03;29.42;96434.09;5021530;28;20037;-28
2023/08/08 02:50:53;;;;;;;1.73;0.70;;;;;;;26.19;28.98;96437.91;5021789;28;20038;-29
2023/08/08 02:53:18;;;;;;;0.75;0.60;;;;;;;25.97;29.21;96438.25;5021230;28;20473;-30
2023/08/08 02:55:43;;;;;;;0.75;0.52;;;;;;;26.02;29.35;96434.63;5017645;28;20489;-28
2023/08/08 02:58:09;;;;;;;0.90;0.60;;;;;;;26.02;29.06;96431.84;5018369;28;20026;-29
2023/08/08 03:00:34;;;;;;;3.42;0.90;;;;;;;25.95;29.37;96432.50;5013448;28;20033;-29
2023/08/08 03:03:00;;;;;;;1.42;1.00;;;;;;;25.97;29.52;96436.22;5021371;28;20480;-28
2023/08/08 03:05:25;;;;;;;1.42;0.60;;;;;;;26.07;29.42;96439.38;5020803;28;20021;-28
2023/08/08 03:07:51;;;;;;;1.60;0.70;;;;;;;25.95;29.21;96435.25;5021270;28;20068;-28
2023/08/08 03:10:16;;;;;;;2.85;0.40;;;;;;;26.04;29.30;96434.88;5019762;28;20018;-28
2023/08/08 03:12:42;;;;;;;1.00;0.73;;;;;;;26.10;29.10;96436.25;5021217;28;20079;-29
2023/08/08 03:15:07;;;;;;;1.35;0.60;;;;;;;26.02;29.28;96432.59;5018358;28;20101;-28
2023/08/08 03:17:34;;;;;;;3.33;0.57;;;;;;;25.96;29.48;96431.97;5017365;28;20018;-28
2023/08/08 03:20:00;;;;;;;1.27;0.43;;;;;;;26.01;29.49;96442.22;5021638;28;20021;-29
2023/08/08 03:22:25;;;;;;;1.23;0.60;;;;;;;25.83;29.62;96437.47;5021924;28;20079;-28
2023/08/08 03:24:51;;;;;;;1.58;0.80;;;;;;;25.96;29.20;96448.63;5028207;28;20037;-28
2023/08/08 03:27:16;;;;;;;1.73;0.60;;;;;;;25.91;29.74;96443.91;5021025;28;20021;-29
2023/08/08 03:29:42;;;;;;;2.72;0.80;;;;;;;25.93;29.78;96452.47;5021447;28;20030;-28
2023/08/08 03:32:07;;;;;;;1.65;0.70;;;;;;;25.97;29.52;96450.09;5022974;28;20045;-29
2023/08/08 03:34:33;;;;;;;2.08;0.60;;;;;;;25.82;30.13;96449.84;5019845;28;20022;-29
2023/08/08 03:36:59;;;;;;;1.92;0.65;;;;;;;25.87;30.20;96456.59;5020600;28;20152;-29
2023/08/08 03:39:25;;;;;;;1.88;0.68;;;;;;;25.83;30.01;96456.16;5023726;28;20032;-28
2023/08/08 03:41:50;;;;;;;2.28;0.60;;;;;;;25.85;30.21;96454.34;5022409;28;20380;-28
2023/08/08 03:44:16;;;;;;;2.30;0.65;;;;;;;25.82;30.24;96460.22;5021944;28;20532;-29
2023/08/08 03:46:41;;;;;;;1.42;0.80;;;;;;;25.70;30.62;96457.59;5013910;28;20038;-28
2023/08/08 03:49:06;;;;;;;2.10;0.50;;;;;;;25.77;30.55;96450.69;5020620;28;20045;-29
2023/08/08 03:51:32;;;;;;;2.42;0.60;;;;;;;25.64;30.71;96459.69;5021472;28;20018;-29
2023/08/08 03:53:57;;;;;;;3.22;0.50;;;;;;;25.81;30.46;96456.69;5020758;28;20022;-28
2023/08/08 03:56:23;;;;;;;0.90;0.50;;;;;;;25.84;30.27;96466.72;5020644;28;20022;-28
2023/08/08 03:58:48;;;;;;;3.13;0.77;;;;;;;25.91;30.12;96449.47;5020996;28;20443;-28
2023/08/08 04:01:14;;;;;;;2.97;1.15;;;;;;;25.87;30.52;96449.00;5020847;28;20022;-28
2023/08/08 04:03:39;;;;;;;1.10;0.68;;;;;;;25.84;30.51;96449.34;5014030;28;20075;-28
2023/08/08 04:06:05;;;;;;;1.30;0.77;;;;;;;25.93;30.63;96462.81;5020687;28;20025;-28
2023/08/08 04:08:30;;;;;;;3.28;1.33;;;;;;;25.79;30.53;96461.25;5020223;28;20061;-30
2023/08/08 04:10:56;;;;;;;1.25;0.73;;;;;;;25.82;30.75;96472.06;5023256;28;20026;-28
2023/08/08 04:13:21;;;;;;;2.47;0.70;;;;;;;25.82;30.87;96474.84;5017324;28;20466;-29
2023/08/08 04:15:47;;;;;;;3.58;0.80;;;;;;;25.64;31.00;96481.16;5020958;28;20389;-28
2023/08/08 04:18:12;;;;;;;1.35;0.70;;;;;;;25.76;30.48;96483.25;5020340;28;20029;-28
2023/08/08 04:20:38;;;;;;;1.80;0.70;;;;;;;25.68;30.66;96481.63;5020564;28;20047;-29
2023/08/08 04:23:04;;;;;;;2.10;0.70;;;;;;;25.73;30.69;96478.75;5016736;28;20021;-28
2023/08/08 04:25:30;;;;;;;1.02;0.70;;;;;;;25.81;30.63;96486.50;5029075;28;20022;-29
2023/08/08 04:27:55;;;;;;;1.85;0.60;;;;;;;25.63;31.20;96490.78;5031655;28;20026;-28
2023/08/08 04:30:21;;;;;;;1.77;0.60;;;;;;;25.75;30.39;96508.78;5020796;28;20023;-28
2023/08/08 04:32:46;;;;;;;3.55;1.15;;;;;;;25.45;31.12;96491.50;5020959;28;20021;-28
2023/08/08 04:35:12;;;;;;;2.40;0.68;;;;;;;25.83;30.37;96504.16;5031584;28;20115;-29
2023/08/08 04:37:37;;;;;;;3.78;1.33;;;;;;;25.61;30.32;96507.94;5015684;28;20038;-28
2023/08/08 04:40:03;;;;;;;2.35;0.77;;;;;;;25.84;29.96;96502.84;5031107;28;20080;-28
2023/08/08 04:42:29;;;;;;;1.88;0.68;;;;;;;25.58;30.07;96506.22;5024383;28;20033;-29
2023/08/08 04:44:54;;;;;;;1.90;0.68;;;;;;;25.45;30.46;96500.56;5024361;28;20030;-28
2023/08/08 04:47:20;;;;;;;3.90;1.70;;;;;;;25.65;30.20;96508.41;5025300;28;20057;-28
2023/08/08 04:49:45;;;;;;;2.25;0.70;;;;;;;25.75;30.16;96509.53;5022643;28;20042;-28
2023/08/08 04:52:10;;;;;;;1.00;0.60;;;;;;;25.79;29.80;96508.50;5023792;28;20037;-29
2023/08/08 04:54:36;;;;;;;1.85;0.60;;;;;;;25.73;29.61;96505.78;5025341;28;20033;-28
2023/08/08 04:57:01;;;;;;;1.92;0.70;;;;;;;25.66;30.05;96512.69;5027162;28;20023;-28
2023/08/08 04:59:27;;;;;;;1.83;0.60;;;;;;;25.66;30.14;96514.72;5018503;28;20414;-28
2023/08/08 05:01:52;;;;;;;2.65;0.70;;;;;;;25.81;29.64;96503.91;5023140;28;20026;-29
2023/08/08 05:04:18;;;;;;;1.63;0.50;;;;;;;25.78;30.06;96518.84;5022482;28;20044;-28
2023/08/08 05:06:43;;;;;;;0.80;0.47;;;;;;;25.69;29.51;96519.22;5023668;28;20064;-29
2023/08/08 05:09:09;;;;;;;2.53;0.70;;;;;;;25.69;29.77;96510.91;5016854;28;20018;-28
2023/08/08 05:11:35;;;;;;;2.00;0.50;;;;;;;25.71;29.82;96509.09;5023324;28;20045;-29
2023/08/08 05:14:01;;;;;;;3.15;0.85;;;;;;;25.77;29.42;96509.75;5023426;28;20030;-29
2023/08/08 05:16:26;;;;;;;2.25;0.70;;;;;;;25.76;29.11;96510.28;5022684;28;20592;-28
2023/08/08 05:18:52;;;;;;;5.07;2.95;;;;;;;25.77;29.06;96512.53;5015528;28;20036;-28
2023/08/08 05:21:17;;;;;;;4.00;2.20;;;;;;;25.85;29.62;96512.69;5023486;28;20105;-28
2023/08/08 05:23:43;;;;;;;2.95;1.80;;;;;;;25.74;29.47;96524.69;5023233;28;20024;-28
2023/08/08 05:26:08;;;;;;;6.82;1.45;;;;;;;25.86;29.25;96519.75;5017895;28;20025;-29
2023/08/08 05:28:34;;;;;;;2.85;0.82;;;;;;;25.87;29.53;96520.50;5027425;28;20048;-28
2023/08/08 05:30:59;;;;;;;3.33;0.90;;;;;;;25.66;30.07;96523.06;5023222;28;20101;-28
2023/08/08 05:33:25;;;;;;;1.85;0.60;;;;;;;25.81;30.16;96517.81;5022903;28;20018;-29
2023/08/08 05:35:50;;;;;;;2.88;0.70;;;;;;;25.83;30.16;96514.50;5022566;28;20048;-29
2023/08/08 05:38:16;;;;;;;1.52;0.88;;;;;;;25.80;30.18;96516.31;5017262;28;20030;-30
2023/08/08 05:40:41;;;;;;;1.48;0.60;;;;;;;25.80;30.16;96507.22;5026817;28;20032;-28
2023/08/08 05:43:08;;;;;;;1.23;0.45;;;;;;;25.87;30.01;96518.47;5022936;28;20026;-28
2023/08/08 05:45:33;;;;;;;1.70;0.60;;;;;;;25.87;29.88;96515.69;5022750;28;20100;-28
2023/08/08 05:48:00;;;;;;;2.15;0.75;;;;;;;25.79;29.94;96525.91;5029210;28;20416;-28
2023/08/08 05:50:27;;;;;;;1.27;0.60;;;;;;;25.97;29.77;96525.13;5023573;28;20058;-28
2023/08/08 05:52:53;;;;;;;1.73;0.70;;;;;;;25.99;29.50;96528.16;5022617;28;20056;-29
2023/08/08 05:55:18;;;;;;;1.83;0.50;;;;;;;25.93;30.04;96532.28;5023128;28;20429;-29
2023/08/08 05:57:44;;;;;;;1.25;0.60;;;;;;;25.83;30.08;96534.69;5022278;28;20033;-29
2023/08/08 06:00:11;;;;;;;0.93;0.47;;;;;;;26.05;30.30;96537.16;5021672;28;20029;-29
2023/08/08 06:02:37;;;;;;;1.77;0.47;;;;;;;26.03;30.62;96539.72;5022958;28;20025;-28
2023/08/08 06:05:03;;;;;;;2.20;0.80;;;;;;;26.13;30.40;96545.63;5020230;28;20548;-28
2023/08/08 06:07:29;;;;;;;2.05;0.50;;;;;;;25.98;30.40;96546.09;5018080;28;20029;-28
2023/08/08 06:09:54;;;;;;;1.23;0.50;;;;;;;25.77;30.68;96553.47;5029906;28;20091;-29
2023/08/08 06:12:20;;;;;;;2.20;0.50;;;;;;;25.72;30.87;96554.28;5022444;28;20030;-28
2023/08/08 06:14:46;;;;;;;2.45;0.45;;;;;;;25.97;30.37;96549.38;5023701;28;20021;-29
2023/08/08 06:17:11;;;;;;;3.17;0.50;;;;;;;26.05;30.33;96553.84;5024163;28;20033;-28
2023/08/08 06:19:37;;;;;;;2.40;0.47;;;;;;;26.03;30.47;96553.63;5017658;28;20029;-29
2023/08/08 06:22:03;;;;;;;2.03;0.60;;;;;;;25.96;30.51;96550.69;5021931;28;20045;-29
2023/08/08 06:24:28;;;;;;;1.50;0.50;;;;;;;26.20;30.13;96558.94;5021039;28;20017;-28
2023/08/08 06:26:54;;;;;;;1.73;0.50;;;;;;;26.18;30.59;96557.97;5016522;28;20072;-30
2023/08/08 06:29:20;;;;;;;0.82;0.60;;;;;;;26.07;30.85;96570.75;5025624;28;20022;-28
2023/08/08 06:31:45;;;;;;;2.88;0.68;;;;;;;26.08;30.45;96568.72;5025007;28;20033;-29
2023/08/08 06:34:10;;;;;;;1.90;0.60;;;;;;;26.02;30.43;96568.03;5024408;28;20081;-28
2023/08/08 06:36:36;;;;;;;1.77;0.60;;;;;;;25.98;30.73;96570.34;5019265;28;20052;-28
2023/08/08 06:39:02;;;;;;;1.98;0.50;;;;;;;25.84;30.96;96574.34;5021574;28;20022;-28
2023/08/08 06:41:27;;;;;;;2.03;0.77;;;;;;;26.18;30.39;96575.38;5016167;28;20025;-28
2023/08/08 06:43:53;;;;;;;0.70;0.50;;;;;;;26.08;31.16;96577.81;5025530;28;20030;-29
2023/08/08 06:46:20;;;;;;;4.10;0.85;;;;;;;25.92;32.64;96581.56;5029704;28;20021;-28
2023/08/08 06:48:46;;;;;;;2.67;0.60;;;;;;;25.92;33.66;96573.22;5021440;28;20045;-28
2023/08/08 06:51:12;;;;;;;3.10;0.80;;;;;;;26.10;33.55;96578.00;5028674;28;20048;-28
2023/08/08 06:53:37;;;;;;;1.08;0.50;;;;;;;26.11;33.55;96587.09;5017355;28;20466;-29
2023/08/08 06:56:03;;;;;;;1.23;0.60;;;;;;;26.20;33.42;96574.88;5019103;28;20037;-28
2023/08/08 06:58:28;;;;;;;3.28;0.60;;;;;;;26.37;33.08;96578.91;5023261;28;20060;-28
2023/08/08 07:00:54;;;;;;;1.02;0.45;;;;;;;26.06;33.61;96574.78;5024598;28;20037;-28
2023/08/08 07:03:19;;;;;;;1.60;0.93;;;;;;;26.35;32.89;96575.16;5024143;28;20025;-28
2023/08/08 07:05:45;;;;;;;4.15;0.80;;;;;;;26.20;32.50;96574.88;5021277;28;20021;-29
2023/08/08 07:08:11;;;;;;;4.13;1.90;;;;;;;26.29;31.19;96572.47;5021620;28;20462;-28
2023/08/08 07:10:37;;;;;;;1.70;1.20;;;;;;;26.20;31.31;96580.44;5021225;28;20100;-28
2023/08/08 07:13:02;;;;;;;1.50;1.00;;;;;;;26.13;31.22;96579.00;5018129;28;20415;-28
2023/08/08 07:15:27;;;;;;;2.92;1.05;;;;;;;26.24;30.97;96580.84;5025085;28;20025;-28
2023/08/08 07:17:53;;;;;;;1.77;0.75;;;;;;;26.19;31.21;96579.66;5022746;28;20026;-29
2023/08/08 07:20:19;;;;;;;6.28;0.68;;;;;;;26.23;30.36;96582.13;5026743;28;20014;-28
2023/08/08 07:22:44;;;;;;;2.10;0.90;;;;;;;26.35;30.64;96584.25;5021138;28;20028;-28
2023/08/08 07:25:11;;;;;;;0.93;0.47;;;;;;;26.43;30.26;96579.59;5021647;28;20018;-29
2023/08/08 07:27:37;;;;;;;0.93;0.50;;;;;;;26.19;30.59;96588.00;5027667;28;20075;-28
2023/08/08 07:30:04;;;;;;;2.28;0.50;;;;;;;26.48;29.95;96586.34;5022093;28;20021;-28
2023/08/08 07:32:30;;;;;;;1.23;0.63;;;;;;;26.41;30.50;96587.72;5025626;28;20071;-29
2023/08/08 07:34:55;;;;;;;4.82;0.90;;;;;;;26.45;30.61;96590.94;5015655;28;20021;-28
2023/08/08 07:37:21;;;;;;;0.85;0.55;;;;;;;26.39;30.89;96583.94;5021118;28;20462;-29
2023/08/08 07:39:46;;;;;;;1.90;0.80;;;;;;;26.46;30.68;96583.31;5019321;28;20034;-28
2023/08/08 07:42:11;;;;;;;1.85;0.50;;;;;;;26.56;30.49;96572.56;5015117;28;20054;-28
2023/08/08 07:44:38;;;;;;;1.70;0.50;;;;;;;26.62;30.76;96576.00;5021386;28;20489;-29
2023/08/08 07:47:04;;;;;;;2.17;0.50;;;;;;;26.43;30.97;96581.63;5020598;28;20025;-28
2023/08/08 07:49:30;;;;;;;1.73;0.50;;;;;;;26.46;31.32;96574.97;5021161;28;20048;-29
2023/08/08 07:51:55;;;;;;;3.33;0.80;;;;;;;26.72;31.08;96580.63;5018972;28;20025;-28
2023/08/08 07:54:20;;;;;;;0.77;0.50;;;;;;;26.64;31.53;96582.53;5022148;28;20033;-29
2023/08/08 07:56:46;;;;;;;0.50;0.50;;;;;;;26.74;31.24;96580.84;5020694;28;20026;-29
2023/08/08 07:59:11;;;;;;;0.50;0.50;;;;;;;26.61;31.19;96578.03;5019934;28;20025;-28
2023/08/08 08:01:37;;;;;;;0.82;0.50;;;;;;;26.78;30.62;96584.09;5015900;28;20025;-30
2023/08/08 08:04:03;;;;;;;1.02;0.50;;;;;;;26.72;30.71;96586.19;5018472;28;20113;-29
2023/08/08 08:06:28;;;;;;;1.10;0.35;;;;;;;26.66;30.60;96585.56;5020283;28;20018;-28
2023/08/08 08:08:54;;;;;;;1.23;0.73;;;;;;;26.47;29.66;96587.59;5020415;28;20025;-28
2023/08/08 08:11:19;;;;;;;1.17;0.40;;;;;;;26.60;29.26;96578.56;5020422;28;20363;-29
2023/08/08 08:13:44;;;;;;;0.90;0.50;;;;;;;26.65;29.87;96591.63;5020437;28;20029;-29
2023/08/08 08:16:10;;;;;;;0.95;0.40;;;;;;;26.30;30.71;96585.09;5020846;28;20017;-28
2023/08/08 08:18:36;;;;;;;1.60;0.60;;;;;;;26.76;30.67;96583.09;5019569;28;20026;-28
2023/08/08 08:21:01;;;;;;;1.33;0.70;;;;;;;26.69;31.02;96584.50;5022634;28;20022;-28
2023/08/08 08:23:27;;;;;;;1.38;0.65;;;;;;;26.78;31.74;96584.09;5023542;28;20083;-29
2023/08/08 08:25:52;;;;;;;0.80;0.47;;;;;;;26.87;31.75;96590.50;5021885;28;20471;-29
2023/08/08 08:28:18;;;;;;;1.00;0.60;;;;;;;26.91;31.15;96588.94;5023948;28;20553;-28
2023/08/08 08:30:43;;;;;;;1.75;0.70;;;;;;;26.95;31.93;96592.19;5024211;28;20030;-29
2023/08/08 08:33:10;;;;;;;1.58;0.50;;;;;;;26.86;31.47;96595.34;5027287;28;20027;-28
2023/08/08 08:35:36;;;;;;;1.88;0.73;;;;;;;27.02;32.19;96590.81;5018236;28;20454;-28
2023/08/08 08:38:02;;;;;;;1.75;0.50;;;;;;;26.91;32.45;96597.28;5014787;28;20030;-28
2023/08/08 08:40:29;;;;;;;2.20;0.60;;;;;;;26.92;30.96;96598.78;5019983;28;20028;-29
2023/08/08 08:42:55;;;;;;;2.28;0.47;;;;;;;27.10;31.23;96602.78;5027129;28;20032;-28
2023/08/08 08:45:22;;;;;;;2.45;0.60;;;;;;;27.09;31.19;96607.59;5021388;28;20030;-29
2023/08/08 08:47:51;;;;;;;16.02;2.25;;;;;;;26.84;28.97;96604.22;5018464;28;20072;-28
2023/08/08 08:50:18;;;;;;;13.02;1.92;;;;;;;27.09;29.63;96606.84;5022357;28;20107;-28
2023/08/08 08:52:43;;;;;;;9.70;1.75;;;;;;;27.08;30.43;96606.09;5023589;28;20049;-28
2023/08/08 08:55:09;;;;;;;12.02;2.22;;;;;;;26.95;29.99;96608.13;5023092;28;20068;-28
2023/08/08 08:57:36;;;;;;;7.63;2.08;;;;;;;27.05;30.93;96612.75;5019825;28;20155;-29
2023/08/08 09:00:03;;;;;;;11.68;1.58;;;;;;;26.99;30.37;96609.31;5020201;28;20095;-30
2023/08/08 09:02:28;;;;;;;4.35;1.63;;;;;;;27.03;30.31;96611.78;5020022;28;20056;-28
2023/08/08 09:04:54;;;;;;;4.30;1.10;;;;;;;26.93;30.07;96608.66;5016591;28;20108;-28
2023/08/08 09:07:26;;;;;;;5.85;1.05;;;;;;;27.07;29.19;96615.78;5023299;28;20025;-29
2023/08/08 09:09:52;;;;;;;2.97;0.80;;;;;;;27.05;30.06;96612.75;5020802;28;20504;-28
2023/08/08 09:12:18;;;;;;;1.00;0.80;;;;;;;27.10;29.08;96608.38;5023463;28;20025;-28
2023/08/08 09:14:43;;;;;;;2.38;1.02;;;;;;;27.21;29.57;96608.16;5016971;28;20084;-28
2023/08/08 09:17:13;;;;;;;2.80;0.80;;;;;;;27.01;29.59;96612.31;5026969;28;20412;-28
2023/08/08 09:19:42;;;;;;;2.08;0.70;;;;;;;27.01;29.60;96611.56;5018514;28;20034;-28
2023/08/08 09:22:07;;;;;;;1.40;0.77;;;;;;;27.06;29.39;96613.50;5023226;28;20405;-29
2023/08/08 09:24:33;;;;;;;4.82;1.77;;;;;;;27.24;28.44;96611.91;5029614;28;20021;-28
2023/08/08 09:26:58;;;;;;;1.73;1.10;;;;;;;27.24;28.83;96609.88;5016857;28;20026;-28
2023/08/08 09:29:24;;;;;;;3.05;1.00;;;;;;;27.10;28.14;96609.13;5022050;28;20417;-28
2023/08/08 09:31:50;;;;;;;1.23;0.75;;;;;;;27.32;28.78;96619.13;5022597;28;20018;-28
2023/08/08 09:34:15;;;;;;;2.10;0.80;;;;;;;27.27;28.04;96606.03;5026057;28;20026;-28
2023/08/08 09:36:41;;;;;;;1.48;0.73;;;;;;;27.17;28.41;96610.53;5026500;28;20099;-29
2023/08/08 09:39:07;;;;;;;3.17;0.70;;;;;;;27.29;28.42;96611.06;5023974;28;20097;-30
2023/08/08 09:41:32;;;;;;;0.73;0.55;;;;;;;27.25;28.32;96611.38;5019470;28;20420;-28
2023/08/08 09:43:59;;;;;;;1.63;0.98;;;;;;;27.23;28.50;96616.72;5026331;28;20022;-30
2023/08/08 09:46:24;;;;;;;0.90;0.60;;;;;;;27.29;27.43;96614.63;5029986;28;20380;-32
2023/08/08 09:48:50;;;;;;;2.15;0.75;;;;;;;27.18;26.53;96612.03;5016115;28;20061;-29
2023/08/08 09:51:16;;;;;;;2.28;0.70;;;;;;;27.10;26.08;96609.13;5014668;28;20049;-28
2023/08/08 09:53:44;;;;;;;1.30;0.60;;;;;;;27.32;26.46;96605.19;5025942;28;20032;-28
2023/08/08 09:56:09;;;;;;;0.77;0.60;;;;;;;27.33;26.20;96608.69;5018758;28;20037;-28
2023/08/08 09:58:35;;;;;;;2.45;0.55;;;;;;;27.24;26.51;96609.88;5029593;28;20021;-29
2023/08/08 10:01:01;;;;;;;0.70;0.60;;;;;;;27.17;26.38;96608.50;5022574;28;20462;-28
2023/08/08 10:03:26;;;;;;;0.82;0.60;;;;;;;27.17;26.46;96614.06;5023393;28;20025;-30
2023/08/08 10:05:52;;;;;;;1.10;0.50;;;;;;;27.22;26.41;96609.66;5019001;28;20021;-28
2023/08/08 10:08:19;;;;;;;0.70;0.50;;;;;;;27.38;26.11;96616.97;5024640;28;20013;-28
2023/08/08 10:10:47;;;;;;;1.88;0.60;;;;;;;27.37;26.35;96604.31;5022740;28;20036;-28
2023/08/08 10:13:46;;;;;;;1.05;0.70;;;;;;;27.35;25.99;96604.09;5018770;28;20032;-30
2023/08/08 10:16:15;;;;;;;0.90;0.70;;;;;;;27.37;25.73;96609.16;5020331;28;20460;-29
2023/08/08 10:18:41;;;;;;;3.53;0.80;;;;;;;27.29;25.40;96609.03;5017516;28;20081;-28
2023/08/08 10:21:09;;;;;;;2.38;1.20;;;;;;;27.37;25.66;96612.69;5022263;28;20026;-29
2023/08/08 10:23:37;;;;;;;1.10;0.80;;;;;;;27.51;25.25;96608.63;5021752;28;20508;-29
2023/08/08 10:26:03;;;;;;;4.35;2.65;;;;;;;27.38;25.03;96611.41;5021047;28;20034;-28
2023/08/08 10:28:29;;;;;;;2.75;1.80;;;;;;;27.38;25.67;96613.44;5015055;28;20085;-28
2023/08/08 10:30:56;;;;;;;4.18;1.40;;;;;;;27.25;26.33;96613.41;5022542;28;20033;-29
2023/08/08 10:33:27;;;;;;;2.47;1.10;;;;;;;27.36;25.77;96602.81;5021828;28;20057;-28
2023/08/08 10:36:01;;;;;;;1.58;1.08;;;;;;;27.52;25.76;96606.59;5022230;28;20047;-29
2023/08/08 10:38:40;;;;;;;2.22;1.05;;;;;;;27.36;25.67;96600.03;5018107;28;20473;-28
2023/08/08 10:41:09;;;;;;;2.05;1.00;;;;;;;27.47;26.42;96602.63;5023837;28;20030;-28
2023/08/08 10:43:34;;;;;;;4.68;0.82;;;;;;;27.57;26.31;96605.03;5028372;28;20068;-28
2023/08/08 10:46:02;;;;;;;1.67;0.95;;;;;;;27.49;26.79;96602.84;5014793;28;20022;-29
2023/08/08 10:48:28;;;;;;;3.30;0.70;;;;;;;27.46;25.67;96605.94;5023974;28;20125;-28
2023/08/08 10:51:01;;;;;;;2.17;1.48;;;;;;;27.52;26.23;96598.97;5019801;28;20470;-28
2023/08/08 10:53:29;;;;;;;6.45;4.38;;;;;;;27.43;25.96;96599.41;5022372;28;20448;-28
2023/08/08 10:56:03;;;;;;;7.07;3.53;;;;;;;27.54;25.98;96596.41;5018356;28;20044;-30
2023/08/08 10:58:37;;;;;;;4.95;2.70;;;;;;;27.50;25.36;96595.97;5022274;28;20026;-29
2023/08/08 11:01:07;;;;;;;3.65;2.25;;;;;;;27.48;25.29;96592.97;5019305;28;20056;-28
2023/08/08 11:03:42;;;;;;;3.70;1.83;;;;;;;27.63;25.34;96591.72;5021908;28;20385;-29
2023/08/08 11:06:09;;;;;;;2.72;1.70;;;;;;;27.57;25.60;96599.44;5024354;28;20018;-28
2023/08/08 11:08:37;;;;;;;4.00;1.60;;;;;;;27.61;26.01;96602.63;5023638;28;20021;-29
2023/08/08 11:11:04;;;;;;;2.00;1.15;;;;;;;27.67;25.71;96600.50;5024180;28;20039;-28
2023/08/08 11:13:30;;;;;;;1.88;1.17;;;;;;;27.70;26.08;96588.28;5023483;28;20083;-29
2023/08/08 11:15:55;;;;;;;3.38;1.08;;;;;;;27.61;26.29;96591.50;5021769;28;20017;-28
2023/08/08 11:18:21;;;;;;;3.00;0.98;;;;;;;27.60;25.56;96601.13;5019623;28;20036;-30
2023/08/08 11:20:48;;;;;;;2.88;1.00;;;;;;;27.69;25.37;96595.16;5023502;28;20113;-28
2023/08/08 11:23:14;;;;;;;1.17;0.70;;;;;;;27.52;25.63;96593.41;5024215;28;20396;-28
2023/08/08 11:25:44;;;;;;;2.08;0.80;;;;;;;27.58;25.38;96598.88;5022873;28;20029;-28
2023/08/08 11:28:11;;;;;;;1.23;0.70;;;;;;;27.62;24.82;96590.22;5028290;28;20041;-28
2023/08/08 11:30:43;;;;;;;1.10;0.73;;;;;;;27.68;25.29;96596.44;5021493;28;20057;-29